Time;durP1;ratioP1;P1;durP2;ratioP2;P2;SDS_P1;SDS_P2;PMS_P1;PMS_P2;Temp;Humidity;BMP_temperature;BMP_pressure;BME280_temperature;BME280_humidity;BME280_pressure;Samples;Min_cycle;Max_cycle;Signal;HPM_P1;HPM_P2
2021/12/08 00:00:21;;;;;;;1.80;1.40;;;;;5.00;98875.00;;;;4985597;28;20801;-76
2021/12/08 00:03:11;;;;;;;3.23;1.60;;;;;5.10;98903.00;;;;4989418;28;20230;-76
2021/12/08 00:05:59;;;;;;;4.47;1.83;;;;;5.10;98889.00;;;;4988153;28;20230;-77
2021/12/08 00:08:59;;;;;;;3.83;1.80;;;;;5.00;98888.00;;;;4987661;28;20230;-76
2021/12/08 00:14:51;;;;;;;5.03;1.87;;;;;5.00;98889.00;;;;5005475;28;20377;-77
2021/12/08 00:17:37;;;;;;;4.07;2.00;;;;;4.90;98856.00;;;;5017665;28;20225;-77
2021/12/08 00:20:27;;;;;;;5.60;1.90;;;;;4.90;98869.00;;;;4996466;28;20237;-76
2021/12/08 00:23:15;;;;;;;4.00;1.73;;;;;5.00;98874.00;;;;4982975;28;20741;-76
2021/12/08 00:26:03;;;;;;;5.77;2.10;;;;;5.00;98876.00;;;;4991989;28;20329;-76
2021/12/08 00:28:49;;;;;;;7.17;1.90;;;;;5.10;98869.00;;;;4988907;28;20726;-76
2021/12/08 00:31:37;;;;;;;2.63;1.70;;;;;5.00;98867.00;;;;4989321;28;20246;-76
2021/12/08 00:34:24;;;;;;;3.23;1.80;;;;;5.00;98868.00;;;;4992034;28;20238;-77
2021/12/08 00:37:11;;;;;;;3.80;2.00;;;;;5.00;98875.00;;;;5006785;28;20284;-77
2021/12/08 00:39:58;;;;;;;5.83;1.87;;;;;5.00;98871.00;;;;5002071;28;20353;-77
2021/12/08 00:42:46;;;;;;;4.07;1.80;;;;;5.00;98854.00;;;;5004366;28;20253;-77
2021/12/08 00:45:34;;;;;;;3.57;1.60;;;;;4.90;98839.00;;;;5007864;28;20281;-78
2021/12/08 00:48:22;;;;;;;3.30;1.80;;;;;4.90;98839.00;;;;4994560;28;20257;-77
2021/12/08 00:51:09;;;;;;;6.47;2.50;;;;;5.00;98832.00;;;;5008430;28;20237;-78
2021/12/08 00:53:55;;;;;;;2.80;1.87;;;;;5.10;98834.00;;;;4986794;28;20234;-78
2021/12/08 00:56:41;;;;;;;3.73;1.93;;;;;5.10;98827.00;;;;5011659;28;20255;-76
2021/12/08 00:59:27;;;;;;;4.23;2.03;;;;;5.20;98817.00;;;;4986890;28;20289;-77
2021/12/08 01:02:22;;;;;;;2.43;1.60;;;;;5.20;98833.00;;;;4991222;28;20249;-77
2021/12/08 01:05:12;;;;;;;5.23;2.10;;;;;5.10;98833.00;;;;5012042;28;20237;-76
2021/12/08 01:07:58;;;;;;;6.17;1.97;;;;;5.20;98823.00;;;;5020547;28;20308;-76
2021/12/08 01:10:48;;;;;;;2.17;1.67;;;;;5.20;98827.00;;;;5013044;28;20269;-75
2021/12/08 01:13:34;;;;;;;2.93;1.87;;;;;5.30;98816.00;;;;4995729;28;20257;-75
2021/12/08 01:16:21;;;;;;;1.80;1.63;;;;;5.30;98821.00;;;;5006207;28;20509;-76
2021/12/08 01:19:08;;;;;;;3.63;1.60;;;;;5.30;98822.00;;;;4995718;28;20237;-78
2021/12/08 01:21:56;;;;;;;3.67;1.80;;;;;5.20;98826.00;;;;4988337;28;20254;-75
2021/12/08 01:24:42;;;;;;;2.50;1.63;;;;;5.10;98826.00;;;;4982847;28;20315;-76
2021/12/08 01:27:30;;;;;;;1.63;1.50;;;;;5.10;98822.00;;;;5006903;28;20292;-75
2021/12/08 01:30:16;;;;;;;1.97;1.47;;;;;5.20;98825.00;;;;5004868;28;20232;-76
2021/12/08 01:33:03;;;;;;;2.60;1.70;;;;;5.30;98824.00;;;;4996481;28;21014;-74
2021/12/08 01:35:49;;;;;;;5.87;1.80;;;;;5.30;98823.00;;;;4998645;28;20332;-77
2021/12/08 01:38:37;;;;;;;5.70;2.00;;;;;5.40;98820.00;;;;4992554;28;20238;-77
2021/12/08 01:41:25;;;;;;;4.87;1.33;;;;;5.30;98818.00;;;;5012103;28;20233;-77
2021/12/08 01:47:15;;;;;;;1.87;1.50;;;;;5.60;98824.00;;;;5013649;28;20260;-76
2021/12/08 01:50:02;;;;;;;3.87;1.87;;;;;5.70;98825.00;;;;5007827;28;20237;-76
2021/12/08 01:52:48;;;;;;;2.93;1.60;;;;;5.70;98813.00;;;;5000863;28;20246;-76
2021/12/08 01:55:37;;;;;;;2.93;1.83;;;;;5.70;98822.00;;;;5021519;28;20291;-77
2021/12/08 01:58:24;;;;;;;3.80;2.10;;;;;5.60;98831.00;;;;5009338;28;20812;-76
2021/12/08 02:01:12;;;;;;;2.27;1.70;;;;;5.60;98833.00;;;;5018791;28;20230;-76
2021/12/08 02:04:03;;;;;;;2.70;1.70;;;;;5.70;98833.00;;;;5011083;28;20244;-77
2021/12/08 02:06:50;;;;;;;4.60;1.80;;;;;5.80;98812.00;;;;5008281;28;20233;-76
2021/12/08 02:09:36;;;;;;;1.90;1.70;;;;;5.70;98821.00;;;;5010848;28;20233;-76
2021/12/08 02:12:24;;;;;;;2.27;1.90;;;;;5.60;98827.00;;;;5021649;28;20671;-76
2021/12/08 02:15:13;;;;;;;2.67;1.93;;;;;5.70;98834.00;;;;5014605;28;20245;-76
2021/12/08 02:17:59;;;;;;;3.67;1.77;;;;;5.70;98828.00;;;;4997649;28;20656;-76
2021/12/08 02:20:51;;;;;;;2.83;1.60;;;;;5.70;98826.00;;;;4978124;28;20231;-76
2021/12/08 02:23:40;;;;;;;2.33;1.83;;;;;5.60;98820.00;;;;5002081;28;20896;-76
2021/12/08 02:26:27;;;;;;;2.03;1.50;;;;;5.60;98827.00;;;;4986013;28;20495;-77
2021/12/08 02:29:19;;;;;;;3.57;1.87;;;;;5.60;98786.00;;;;4982808;28;20242;-76
2021/12/08 02:32:12;;;;;;;2.40;1.93;;;;;5.70;98819.00;;;;4999339;28;20238;-77
2021/12/08 02:47:31;;;;;;;2.57;2.10;;;;;5.70;98797.00;;;;4986469;28;20282;-75
2021/12/08 02:50:19;;;;;;;3.50;1.90;;;;;5.80;98810.00;;;;4989976;28;20235;-75
2021/12/08 02:53:07;;;;;;;2.87;1.80;;;;;5.80;98818.00;;;;5001821;28;20242;-76
2021/12/08 02:55:53;;;;;;;2.60;1.80;;;;;5.80;98823.00;;;;5001903;28;20879;-77
2021/12/08 02:58:41;;;;;;;4.13;1.80;;;;;5.80;98840.00;;;;4983044;28;20286;-76
2021/12/08 03:01:29;;;;;;;2.97;1.93;;;;;5.80;98830.00;;;;4981629;28;20301;-78
2021/12/08 03:04:15;;;;;;;3.43;1.77;;;;;5.90;98828.00;;;;4982093;28;20359;-75
2021/12/08 03:07:02;;;;;;;3.90;2.10;;;;;5.80;98833.00;;;;4985906;28;20234;-75
2021/12/08 03:09:48;;;;;;;2.17;1.50;;;;;5.80;98828.00;;;;4987319;28;20341;-77
2021/12/08 03:12:34;;;;;;;5.13;1.73;;;;;5.90;98854.00;;;;4997609;28;20241;-76
2021/12/08 03:15:22;;;;;;;4.33;1.87;;;;;5.90;98834.00;;;;5013481;28;20237;-76
2021/12/08 03:18:09;;;;;;;2.97;1.70;;;;;5.90;98842.00;;;;5018924;28;20780;-77
2021/12/08 03:20:55;;;;;;;2.50;1.80;;;;;5.90;98841.00;;;;4992415;28;20222;-76
2021/12/08 03:23:52;;;;;;;3.07;1.87;;;;;5.90;98847.00;;;;4994292;28;20320;-77
2021/12/08 03:26:47;;;;;;;5.73;2.00;;;;;6.10;98855.00;;;;4988597;28;20243;-77
2021/12/08 03:29:45;;;;;;;2.00;1.70;;;;;6.00;98847.00;;;;5017967;28;20233;-77
2021/12/08 03:32:37;;;;;;;5.07;1.70;;;;;6.00;98852.00;;;;5016350;28;20317;-78
2021/12/08 03:35:26;;;;;;;5.00;1.83;;;;;5.90;98825.00;;;;5013680;28;20736;-77
2021/12/08 03:38:12;;;;;;;3.10;1.90;;;;;5.90;98843.00;;;;5001724;28;20233;-77
2021/12/08 03:40:59;;;;;;;3.77;1.67;;;;;6.10;98869.00;;;;5014427;28;20286;-76
2021/12/08 03:43:46;;;;;;;3.13;1.83;;;;;6.10;98805.00;;;;4987508;28;20226;-75
2021/12/08 03:46:39;;;;;;;1.80;1.40;;;;;6.10;98873.00;;;;5019963;28;20300;-75
2021/12/08 03:49:28;;;;;;;2.07;1.70;;;;;6.10;98864.00;;;;4991878;28;20234;-75
2021/12/08 03:52:15;;;;;;;1.90;1.50;;;;;6.10;98872.00;;;;5011877;28;20370;-77
2021/12/08 03:55:01;;;;;;;5.10;1.53;;;;;6.00;98869.00;;;;4985203;28;20246;-75
2021/12/08 03:57:47;;;;;;;3.43;1.50;;;;;6.00;98874.00;;;;5001180;28;20309;-76
2021/12/08 04:00:34;;;;;;;2.17;1.43;;;;;6.10;98882.00;;;;5001980;28;20235;-77
2021/12/08 04:03:21;;;;;;;2.70;1.50;;;;;6.20;98866.00;;;;4997036;28;20234;-76
2021/12/08 04:06:25;;;;;;;2.93;1.60;;;;;6.10;98874.00;;;;5012765;28;20225;-75
2021/12/08 04:09:18;;;;;;;2.40;1.70;;;;;6.10;98878.00;;;;4998999;28;20733;-76
2021/12/08 04:12:06;;;;;;;1.73;1.57;;;;;6.20;98870.00;;;;4987558;28;20234;-75
2021/12/08 04:14:56;;;;;;;1.27;1.23;;;;;6.20;98879.00;;;;5010477;28;20287;-75
2021/12/08 04:17:46;;;;;;;4.07;1.60;;;;;6.10;98881.00;;;;4994518;28;20258;-76
2021/12/08 04:20:37;;;;;;;1.80;1.30;;;;;6.10;98878.00;;;;4989701;28;20226;-75
2021/12/08 04:23:27;;;;;;;2.33;1.60;;;;;6.30;98881.00;;;;4989720;28;20366;-75
2021/12/08 04:26:18;;;;;;;2.57;1.43;;;;;6.30;98881.00;;;;5007037;28;20348;-76
2021/12/08 04:29:05;;;;;;;3.73;1.50;;;;;6.30;98887.00;;;;4987259;28;20230;-77
2021/12/08 04:31:53;;;;;;;4.03;1.60;;;;;6.50;98877.00;;;;4994679;28;20237;-77
2021/12/08 04:34:41;;;;;;;2.57;1.50;;;;;6.30;98882.00;;;;5007094;28;20320;-77
2021/12/08 04:37:33;;;;;;;2.83;1.60;;;;;6.50;98873.00;;;;4986178;28;20951;-78
2021/12/08 04:40:30;;;;;;;3.13;1.40;;;;;6.40;98882.00;;;;5014780;28;20248;-77
2021/12/08 04:43:24;;;;;;;1.90;1.60;;;;;6.30;98863.00;;;;5009748;28;20346;-78
2021/12/08 04:46:22;;;;;;;2.07;1.30;;;;;6.20;98871.00;;;;5001210;28;20602;-76
2021/12/08 04:49:28;;;;;;;3.50;1.30;;;;;6.30;98883.00;;;;4991826;28;20222;-77
2021/12/08 04:52:19;;;;;;;2.00;1.30;;;;;6.20;98888.00;;;;5001055;28;20225;-77
2021/12/08 05:01:31;;;;;;;4.53;1.60;;;;;6.20;98897.00;;;;5010777;28;20228;-76
2021/12/08 05:07:34;;;;;;;2.17;1.50;;;;;6.30;98904.00;;;;5001460;28;20245;-76
2021/12/08 05:10:27;;;;;;;1.93;1.60;;;;;6.20;98918.00;;;;4988179;28;20277;-77
2021/12/08 05:13:16;;;;;;;6.17;1.77;;;;;6.20;98916.00;;;;4983839;28;20736;-76
2021/12/08 05:16:03;;;;;;;1.70;1.57;;;;;6.40;98910.00;;;;5003525;28;20333;-76
2021/12/08 05:18:52;;;;;;;4.27;1.97;;;;;6.20;98924.00;;;;5011970;28;20246;-76
2021/12/08 05:21:41;;;;;;;1.90;1.70;;;;;6.20;98915.00;;;;5013010;28;20245;-76
2021/12/08 05:24:33;;;;;;;4.60;1.73;;;;;6.30;98924.00;;;;4985196;28;20310;-76
2021/12/08 05:27:25;;;;;;;3.07;1.60;;;;;6.30;98934.00;;;;5005079;28;20323;-75
2021/12/08 05:30:17;;;;;;;5.43;1.83;;;;;6.30;98897.00;;;;4998230;28;20235;-78
2021/12/08 05:33:05;;;;;;;1.40;1.30;;;;;6.20;98941.00;;;;4995105;28;20654;-75
2021/12/08 05:35:52;;;;;;;3.57;1.70;;;;;6.10;98938.00;;;;5009131;28;20272;-77
2021/12/08 05:38:39;;;;;;;3.30;1.77;;;;;6.10;98950.00;;;;5015186;28;20751;-76
2021/12/08 05:41:29;;;;;;;2.53;1.47;;;;;6.10;98955.00;;;;5016838;28;20233;-77
2021/12/08 05:44:16;;;;;;;2.20;1.50;;;;;6.10;98944.00;;;;5015973;28;20313;-74
2021/12/08 05:47:09;;;;;;;2.40;1.50;;;;;6.10;98947.00;;;;5008131;28;20737;-77
2021/12/08 05:49:56;;;;;;;2.83;1.63;;;;;6.10;98945.00;;;;4986676;28;20250;-75
2021/12/08 05:52:43;;;;;;;2.77;1.90;;;;;6.00;98950.00;;;;4994493;28;20358;-75
2021/12/08 05:55:30;;;;;;;3.17;1.90;;;;;6.10;98964.00;;;;4984823;28;20298;-77
2021/12/08 05:58:18;;;;;;;3.07;1.87;;;;;6.00;98960.00;;;;4986641;28;20238;-76
2021/12/08 06:01:11;;;;;;;1.97;1.70;;;;;5.90;98961.00;;;;5006797;28;20477;-77
2021/12/08 06:03:59;;;;;;;3.60;1.70;;;;;6.00;98944.00;;;;5012823;28;20260;-76
2021/12/08 06:06:47;;;;;;;2.53;1.60;;;;;6.10;98967.00;;;;5003161;28;20709;-76
2021/12/08 06:09:35;;;;;;;3.07;1.63;;;;;6.10;98969.00;;;;5036897;28;20236;-78
2021/12/08 06:12:22;;;;;;;2.20;1.50;;;;;5.90;98965.00;;;;5011026;28;20239;-79
2021/12/08 06:15:10;;;;;;;4.90;1.93;;;;;5.90;98973.00;;;;5016333;28;20229;-77
2021/12/08 06:17:56;;;;;;;1.67;1.57;;;;;5.80;98963.00;;;;5014676;28;20228;-77
2021/12/08 06:20:44;;;;;;;3.50;1.53;;;;;5.80;98968.00;;;;5024430;28;20225;-77
2021/12/08 06:23:32;;;;;;;4.10;1.70;;;;;5.80;98964.00;;;;5034670;28;20225;-77
2021/12/08 06:26:21;;;;;;;3.07;1.57;;;;;5.70;98976.00;;;;5046068;28;20305;-78
2021/12/08 06:29:11;;;;;;;2.67;1.90;;;;;5.70;98978.00;;;;5037079;28;20216;-75
2021/12/08 06:32:01;;;;;;;2.93;1.70;;;;;5.60;98971.00;;;;5032075;28;20236;-76
2021/12/08 06:34:51;;;;;;;4.40;1.97;;;;;5.60;98975.00;;;;5019954;28;20222;-78
2021/12/08 06:37:42;;;;;;;6.00;2.07;;;;;5.50;98980.00;;;;5044645;28;20245;-77
2021/12/08 06:40:33;;;;;;;7.17;1.93;;;;;5.50;98974.00;;;;5036592;28;20578;-79
2021/12/08 06:43:22;;;;;;;6.67;2.00;;;;;5.50;98985.00;;;;5032763;28;20238;-77
2021/12/08 06:46:09;;;;;;;1.83;1.70;;;;;5.40;98982.00;;;;5028918;28;20214;-76
2021/12/08 06:48:58;;;;;;;4.10;1.90;;;;;5.30;98987.00;;;;5008943;28;20218;-77
2021/12/08 06:51:48;;;;;;;6.03;1.97;;;;;5.20;98990.00;;;;5018703;28;20210;-76
2021/12/08 06:54:39;;;;;;;2.73;1.77;;;;;5.40;98976.00;;;;5039982;28;20282;-78
2021/12/08 06:57:30;;;;;;;5.10;1.87;;;;;5.30;98989.00;;;;5016794;28;20242;-79
2021/12/08 07:00:23;;;;;;;2.10;1.63;;;;;5.30;98996.00;;;;5034376;28;20238;-77
2021/12/08 07:03:30;;;;;;;4.97;2.03;;;;;5.40;99007.00;;;;5024723;28;20233;-75
2021/12/08 07:06:42;;;;;;;6.30;1.87;;;;;5.60;98990.00;;;;4986848;28;20238;-76
2021/12/08 07:09:34;;;;;;;2.37;2.07;;;;;5.60;98999.00;;;;4992000;28;20369;-76
2021/12/08 07:12:24;;;;;;;3.37;1.90;;;;;5.50;98997.00;;;;4995296;28;20382;-76
2021/12/08 07:15:16;;;;;;;2.83;1.80;;;;;5.50;98997.00;;;;4991492;28;20617;-77
2021/12/08 07:18:07;;;;;;;4.50;2.13;;;;;5.40;98993.00;;;;4998277;28;20725;-76
2021/12/08 07:20:58;;;;;;;6.03;2.40;;;;;5.50;98997.00;;;;4992003;28;20234;-76
2021/12/08 07:23:49;;;;;;;8.27;2.10;;;;;5.50;99014.00;;;;4993939;28;20225;-77
2021/12/08 07:26:39;;;;;;;3.97;1.70;;;;;5.40;99002.00;;;;4993749;28;20236;-76
2021/12/08 07:29:31;;;;;;;4.33;1.90;;;;;5.50;99010.00;;;;5002891;28;20273;-77
2021/12/08 07:32:21;;;;;;;4.40;2.03;;;;;5.40;99022.00;;;;5006188;28;20913;-77
2021/12/08 07:35:14;;;;;;;4.40;2.43;;;;;5.50;99027.00;;;;5001958;28;20256;-77
2021/12/08 07:38:01;;;;;;;3.60;1.90;;;;;5.50;99037.00;;;;5012814;28;20317;-77
2021/12/08 07:40:52;;;;;;;3.43;1.90;;;;;5.50;99037.00;;;;5004323;28;20229;-76
2021/12/08 07:43:42;;;;;;;4.97;2.00;;;;;5.40;99023.00;;;;5001523;28;20277;-77
2021/12/08 07:46:33;;;;;;;5.27;2.23;;;;;5.40;99049.00;;;;4982219;28;20230;-76
2021/12/08 07:49:24;;;;;;;4.10;2.37;;;;;5.60;99050.00;;;;5005892;28;20260;-77
2021/12/08 07:52:14;;;;;;;6.07;2.13;;;;;5.60;99044.00;;;;4992653;28;20234;-77
2021/12/08 07:55:01;;;;;;;5.03;1.87;;;;;5.40;99051.00;;;;4995564;28;20242;-76
2021/12/08 07:57:48;;;;;;;6.17;2.07;;;;;5.50;99070.00;;;;4989113;28;20238;-75
2021/12/08 08:00:38;;;;;;;6.50;2.37;;;;;5.70;99067.00;;;;4984652;28;20255;-75
2021/12/08 08:03:31;;;;;;;2.83;1.87;;;;;5.60;99041.00;;;;4993098;28;20258;-73
2021/12/08 08:06:20;;;;;;;6.00;2.40;;;;;5.70;99068.00;;;;5014217;28;20229;-75
2021/12/08 08:09:10;;;;;;;6.47;2.10;;;;;5.80;99071.00;;;;4996058;28;20355;-74
2021/12/08 08:12:01;;;;;;;4.63;2.10;;;;;5.70;99073.00;;;;4995719;28;20258;-74
2021/12/08 08:14:52;;;;;;;4.03;2.10;;;;;5.70;99068.00;;;;5006584;28;20336;-74
2021/12/08 08:17:43;;;;;;;5.20;1.90;;;;;5.90;99087.00;;;;5011878;28;20608;-74
2021/12/08 08:20:33;;;;;;;5.17;1.93;;;;;5.90;99076.00;;;;5011670;28;20229;-73
2021/12/08 08:23:23;;;;;;;5.03;2.10;;;;;6.00;99087.00;;;;4999483;28;20254;-74
2021/12/08 08:26:11;;;;;;;7.30;2.20;;;;;5.90;99095.00;;;;4997938;28;20231;-73
2021/12/08 08:28:57;;;;;;;3.87;2.20;;;;;6.00;99114.00;;;;4982990;28;20269;-74
2021/12/08 08:31:51;;;;;;;8.03;2.30;;;;;6.00;99105.00;;;;4986651;28;20230;-74
2021/12/08 08:34:44;;;;;;;3.97;1.73;;;;;5.90;99095.00;;;;5014965;28;20720;-75
2021/12/08 08:37:32;;;;;;;3.30;1.80;;;;;5.90;99095.00;;;;5011770;28;20241;-73
2021/12/08 08:40:25;;;;;;;6.33;2.20;;;;;5.90;99107.00;;;;5017808;28;20348;-73
2021/12/08 08:43:11;;;;;;;4.47;2.00;;;;;5.90;99109.00;;;;5004354;28;20234;-74
2021/12/08 08:46:02;;;;;;;4.00;1.77;;;;;5.90;99100.00;;;;4982703;28;20242;-74
2021/12/08 08:48:52;;;;;;;4.73;2.20;;;;;5.80;99103.00;;;;4987101;28;20722;-74
2021/12/08 08:51:42;;;;;;;4.37;1.73;;;;;5.80;99103.00;;;;5013420;28;20260;-75
2021/12/08 08:54:33;;;;;;;3.40;1.80;;;;;6.10;99110.00;;;;4990314;28;20603;-75
2021/12/08 08:57:23;;;;;;;8.37;2.77;;;;;6.10;99100.00;;;;4976555;28;20251;-73
2021/12/08 09:00:15;;;;;;;6.00;2.07;;;;;6.20;99106.00;;;;5007639;28;20225;-73
2021/12/08 09:03:07;;;;;;;6.33;1.87;;;;;6.50;99110.00;;;;4996694;28;20592;-72
2021/12/08 09:06:07;;;;;;;4.23;1.80;;;;;6.60;99116.00;;;;4994190;28;20230;-71
2021/12/08 09:08:53;;;;;;;10.13;2.30;;;;;6.70;99115.00;;;;5004777;28;20225;-72
2021/12/08 09:11:49;;;;;;;6.27;2.07;;;;;6.80;99100.00;;;;5007087;28;20233;-77
2021/12/08 09:14:38;;;;;;;4.13;2.47;;;;;6.80;99097.00;;;;5005778;28;20275;-76
2021/12/08 09:17:27;;;;;;;3.90;2.10;;;;;6.90;99088.00;;;;4989476;28;20235;-76
2021/12/08 09:20:21;;;;;;;5.73;2.03;;;;;6.80;99103.00;;;;5010326;28;20302;-78
2021/12/08 09:23:14;;;;;;;4.50;1.90;;;;;6.80;99115.00;;;;5005223;28;20237;-76
2021/12/08 09:26:05;;;;;;;5.43;2.17;;;;;6.90;99104.00;;;;5000182;28;20226;-77
2021/12/08 09:28:59;;;;;;;7.90;1.93;;;;;6.90;99112.00;;;;5000914;28;20221;-75
2021/12/08 09:31:47;;;;;;;5.30;2.50;;;;;7.00;99108.00;;;;5006299;28;20233;-76
2021/12/08 09:34:37;;;;;;;4.30;2.10;;;;;7.00;99104.00;;;;5007429;28;20298;-76
2021/12/08 09:37:30;;;;;;;7.73;2.10;;;;;7.10;99117.00;;;;5006842;28;20253;-78
2021/12/08 09:40:22;;;;;;;4.63;1.77;;;;;7.00;99125.00;;;;5009109;28;20312;-75
2021/12/08 09:43:12;;;;;;;2.83;1.70;;;;;6.90;99119.00;;;;5006723;28;20227;-75
2021/12/08 09:46:03;;;;;;;5.33;1.90;;;;;7.00;99127.00;;;;4985694;28;20342;-75
2021/12/08 09:48:50;;;;;;;5.60;2.07;;;;;7.00;99135.00;;;;4983841;28;20226;-76
2021/12/08 09:51:38;;;;;;;3.27;2.00;;;;;7.10;99143.00;;;;4996174;28;20234;-76
2021/12/08 09:54:24;;;;;;;5.63;2.33;;;;;7.20;99141.00;;;;5002616;28;21064;-75
2021/12/08 09:57:13;;;;;;;4.57;2.10;;;;;7.30;99138.00;;;;4993975;28;20243;-78
2021/12/08 10:00:00;;;;;;;5.70;2.13;;;;;7.10;99130.00;;;;4979168;28;20234;-76
2021/12/08 10:02:58;;;;;;;6.37;2.33;;;;;7.10;99127.00;;;;4982096;28;20225;-76
2021/12/08 10:05:44;;;;;;;5.07;1.90;;;;;7.30;99108.00;;;;4991313;28;20232;-76
2021/12/08 10:08:31;;;;;;;4.87;2.13;;;;;7.30;99112.00;;;;4983082;28;20367;-76
2021/12/08 10:11:19;;;;;;;6.30;2.20;;;;;7.30;99121.00;;;;5004284;28;20238;-75
2021/12/08 10:14:06;;;;;;;3.80;1.80;;;;;7.30;99111.00;;;;5001462;28;20297;-74
2021/12/08 10:16:54;;;;;;;6.03;2.00;;;;;7.40;99121.00;;;;4977716;28;20230;-75
2021/12/08 10:19:42;;;;;;;8.43;2.20;;;;;7.20;99110.00;;;;4976791;28;20290;-75
2021/12/08 10:22:29;;;;;;;3.77;1.80;;;;;7.30;99113.00;;;;4973814;28;20258;-78
2021/12/08 10:25:18;;;;;;;7.50;2.50;;;;;7.40;99111.00;;;;4974813;28;20760;-75
2021/12/08 10:28:10;;;;;;;5.03;2.13;;;;;7.40;99118.00;;;;4984366;28;20244;-76
2021/12/08 10:31:02;;;;;;;8.27;2.10;;;;;7.50;99129.00;;;;4983476;28;20225;-79
2021/12/08 10:34:00;;;;;;;3.93;1.90;;;;;7.50;99129.00;;;;4982909;28;20233;-77
2021/12/08 10:36:51;;;;;;;4.13;1.93;;;;;7.60;99145.00;;;;4979267;28;20303;-74
2021/12/08 10:39:41;;;;;;;4.80;1.97;;;;;7.60;99137.00;;;;4989214;28;20230;-75
2021/12/08 10:42:29;;;;;;;9.50;2.20;;;;;7.70;99132.00;;;;5007467;28;20334;-73
2021/12/08 10:45:22;;;;;;;7.73;2.07;;;;;7.50;99133.00;;;;5003237;28;20243;-76
2021/12/08 10:48:10;;;;;;;5.10;2.20;;;;;7.50;99135.00;;;;4998792;28;20238;-75
2021/12/08 10:54:30;;;;;;;9.23;2.00;;;;;7.60;99148.00;;;;5016480;28;20733;-76
2021/12/08 10:57:23;;;;;;;6.07;2.00;;;;;7.60;99151.00;;;;5002877;28;20309;-75
2021/12/08 11:00:13;;;;;;;2.87;2.20;;;;;7.60;99156.00;;;;4982904;28;20234;-76
2021/12/08 11:03:01;;;;;;;5.03;1.93;;;;;7.50;99158.00;;;;4977999;28;20235;-75
2021/12/08 11:05:53;;;;;;;7.57;2.30;;;;;7.60;99154.00;;;;4999068;28;20237;-75
2021/12/08 11:08:41;;;;;;;3.60;2.10;;;;;7.70;99156.00;;;;4990827;28;20297;-76
2021/12/08 11:11:32;;;;;;;5.50;2.20;;;;;7.60;99138.00;;;;4983751;28;20235;-76
2021/12/08 11:14:18;;;;;;;4.10;2.23;;;;;7.70;99151.00;;;;5006056;28;20729;-75
2021/12/08 11:17:04;;;;;;;5.07;2.23;;;;;7.70;99143.00;;;;5014015;28;20271;-75
2021/12/08 11:20:11;;;;;;;7.03;2.00;;;;;7.60;99140.00;;;;4983439;28;20222;-75
2021/12/08 11:23:01;;;;;;;5.97;1.97;;;;;7.60;99134.00;;;;4990565;28;20697;-75
2021/12/08 11:25:50;;;;;;;3.73;2.20;;;;;7.60;99145.00;;;;5002985;28;20735;-75
2021/12/08 11:28:40;;;;;;;6.10;1.77;;;;;7.80;99151.00;;;;5021365;28;20625;-77
2021/12/08 11:31:30;;;;;;;6.80;2.13;;;;;7.70;99149.00;;;;5013976;28;20745;-71
2021/12/08 11:34:19;;;;;;;8.23;2.23;;;;;7.70;99162.00;;;;4993664;28;20241;-74
2021/12/08 11:37:07;;;;;;;6.43;2.07;;;;;7.80;99166.00;;;;4988711;28;20241;-75
2021/12/08 11:39:59;;;;;;;5.13;2.30;;;;;7.70;99177.00;;;;4985397;28;20230;-75
2021/12/08 11:42:49;;;;;;;3.80;1.70;;;;;7.80;99167.00;;;;5016607;28;20273;-76
2021/12/08 11:45:39;;;;;;;6.60;1.90;;;;;7.60;99170.00;;;;5023524;28;20304;-76
2021/12/08 11:48:27;;;;;;;9.43;2.20;;;;;7.60;99184.00;;;;5017993;28;20370;-79
2021/12/08 11:51:15;;;;;;;5.23;2.00;;;;;7.80;99173.00;;;;5017031;28;20722;-77
2021/12/08 11:54:01;;;;;;;4.43;1.70;;;;;7.80;99189.00;;;;5010124;28;20350;-77
2021/12/08 11:56:48;;;;;;;5.87;2.13;;;;;7.90;99185.00;;;;4987689;28;20342;-74
2021/12/08 11:59:34;;;;;;;8.63;1.77;;;;;7.80;99186.00;;;;5023722;28;20225;-76
2021/12/08 12:02:23;;;;;;;5.83;2.00;;;;;7.80;99167.00;;;;4998761;28;20242;-73
2021/12/08 12:05:13;;;;;;;3.77;2.03;;;;;7.90;99163.00;;;;4991648;28;20310;-73
2021/12/08 12:08:00;;;;;;;9.30;2.23;;;;;7.80;99172.00;;;;4985985;28;20375;-71
2021/12/08 12:10:49;;;;;;;3.03;1.93;;;;;7.70;99174.00;;;;4982207;28;20290;-71
2021/12/08 12:13:35;;;;;;;9.03;2.20;;;;;7.70;99169.00;;;;4987439;28;20313;-69
2021/12/08 12:16:23;;;;;;;5.47;1.90;;;;;7.80;99171.00;;;;4990866;28;20281;-71
2021/12/08 12:19:15;;;;;;;5.20;2.33;;;;;7.80;99176.00;;;;4990615;28;20610;-71
2021/12/08 12:22:08;;;;;;;6.33;2.00;;;;;7.60;99184.00;;;;4982534;28;20239;-75
2021/12/08 12:25:06;;;;;;;4.77;1.97;;;;;7.80;99189.00;;;;4984839;28;20223;-75
2021/12/08 12:28:09;;;;;;;4.23;1.90;;;;;7.80;99198.00;;;;4989579;28;20658;-77
2021/12/08 12:31:06;;;;;;;10.50;2.27;;;;;7.80;99185.00;;;;4988003;28;20250;-76
2021/12/08 12:33:54;;;;;;;7.60;2.53;;;;;7.90;99191.00;;;;4994707;28;20443;-75
2021/12/08 12:36:41;;;;;;;6.10;2.00;;;;;7.80;99196.00;;;;5018169;28;20239;-75
2021/12/08 12:39:29;;;;;;;5.07;2.20;;;;;7.80;99193.00;;;;4989430;28;20256;-75
2021/12/08 12:42:18;;;;;;;8.67;2.60;;;;;7.80;99196.00;;;;5000179;28;20234;-75
2021/12/08 12:45:09;;;;;;;6.03;2.37;;;;;7.80;99196.00;;;;5017058;28;20335;-76
2021/12/08 12:48:18;;;;;;;4.57;2.20;;;;;7.80;99194.00;;;;5013845;28;20573;-75
2021/12/08 12:51:06;;;;;;;3.83;2.07;;;;;7.80;99194.00;;;;4988402;28;20231;-76
2021/12/08 12:53:55;;;;;;;7.43;2.53;;;;;7.80;99198.00;;;;4994275;28;20298;-75
2021/12/08 12:56:51;;;;;;;2.77;2.07;;;;;7.90;99181.00;;;;5011684;28;20758;-76
2021/12/08 12:59:40;;;;;;;5.60;1.90;;;;;7.90;99182.00;;;;5016496;28;20233;-76
2021/12/08 13:02:31;;;;;;;2.73;1.83;;;;;7.80;99184.00;;;;5011155;28;20239;-75
2021/12/08 13:05:18;;;;;;;8.47;2.07;;;;;7.80;99176.00;;;;5019930;28;20582;-76
2021/12/08 13:08:05;;;;;;;5.67;1.97;;;;;7.80;99186.00;;;;5011188;28;20238;-76
2021/12/08 13:10:55;;;;;;;3.70;1.90;;;;;7.70;99192.00;;;;5009169;28;20261;-76
2021/12/08 13:13:47;;;;;;;4.33;2.10;;;;;7.60;99197.00;;;;5021866;28;20253;-74
2021/12/08 13:16:36;;;;;;;3.83;1.80;;;;;7.70;99195.00;;;;5017325;28;20253;-75
2021/12/08 13:19:39;;;;;;;4.57;1.83;;;;;7.80;99204.00;;;;5014156;28;20383;-76
2021/12/08 13:22:49;;;;;;;7.43;2.00;;;;;7.80;99196.00;;;;4986968;28;20241;-76
2021/12/08 13:25:49;;;;;;;6.33;1.70;;;;;7.80;99202.00;;;;5007314;28;20233;-75
2021/12/08 13:28:48;;;;;;;6.27;1.97;;;;;7.80;99209.00;;;;5004062;28;20717;-75
2021/12/08 13:31:47;;;;;;;5.17;1.57;;;;;7.80;99193.00;;;;4991193;28;20286;-76
2021/12/08 13:34:34;;;;;;;5.40;1.60;;;;;7.60;99201.00;;;;4992191;28;20358;-76
2021/12/08 13:37:24;;;;;;;5.10;1.90;;;;;7.60;99208.00;;;;4993269;28;20241;-75
2021/12/08 13:40:15;;;;;;;4.13;1.60;;;;;7.50;99209.00;;;;5015805;28;20280;-77
2021/12/08 13:43:09;;;;;;;7.60;1.83;;;;;7.60;99224.00;;;;5006221;28;20358;-75
2021/12/08 13:45:56;;;;;;;2.27;1.60;;;;;7.40;99231.00;;;;5015069;28;20238;-76
2021/12/08 13:49:10;;;;;;;7.93;2.10;;;;;7.60;99228.00;;;;5011684;28;20234;-75
2021/12/08 13:52:17;;;;;;;5.30;1.80;;;;;7.60;99227.00;;;;4987228;28;20230;-76
2021/12/08 13:55:23;;;;;;;7.43;1.90;;;;;7.50;99229.00;;;;4988655;28;20227;-75
2021/12/08 13:58:12;;;;;;;4.20;2.07;;;;;7.50;99238.00;;;;4994654;28;20325;-76
2021/12/08 14:01:02;;;;;;;3.03;1.70;;;;;7.50;99237.00;;;;4981971;28;20230;-76
2021/12/08 14:03:49;;;;;;;9.27;1.90;;;;;7.50;99231.00;;;;4983812;28;20298;-75
2021/12/08 14:06:36;;;;;;;5.73;1.80;;;;;7.50;99242.00;;;;5016366;28;20236;-74
2021/12/08 14:09:22;;;;;;;8.10;1.90;;;;;7.40;99245.00;;;;5013183;28;20229;-75
2021/12/08 14:12:08;;;;;;;7.83;1.70;;;;;7.40;99250.00;;;;4988659;28;20347;-75
2021/12/08 14:14:56;;;;;;;7.97;1.97;;;;;7.40;99246.00;;;;4993403;28;20234;-78
2021/12/08 14:17:44;;;;;;;4.93;1.60;;;;;7.40;99256.00;;;;4985307;28;20230;-75
2021/12/08 14:20:34;;;;;;;5.13;1.90;;;;;7.50;99255.00;;;;5001514;28;20226;-76
2021/12/08 14:23:22;;;;;;;4.57;1.93;;;;;7.50;99258.00;;;;5007854;28;20238;-74
2021/12/08 14:26:10;;;;;;;3.97;1.80;;;;;7.30;99251.00;;;;4989842;28;20344;-75
2021/12/08 14:28:58;;;;;;;3.70;1.97;;;;;7.40;99264.00;;;;4986021;28;20234;-75
2021/12/08 14:31:47;;;;;;;3.33;1.70;;;;;7.40;99230.00;;;;4993795;28;20326;-74
2021/12/08 14:34:39;;;;;;;5.23;1.40;;;;;7.40;99262.00;;;;4985208;28;20230;-75
2021/12/08 14:37:25;;;;;;;3.87;1.73;;;;;7.40;99263.00;;;;4988433;28;20962;-75
2021/12/08 14:40:12;;;;;;;8.83;1.43;;;;;7.40;99266.00;;;;5004226;28;20233;-74
2021/12/08 14:42:58;;;;;;;7.30;1.90;;;;;7.30;99265.00;;;;4993623;28;20230;-77
2021/12/08 14:45:44;;;;;;;4.17;1.47;;;;;7.40;99268.00;;;;5002116;28;20303;-77
2021/12/08 14:48:31;;;;;;;5.17;1.77;;;;;7.10;99272.00;;;;5016273;28;20627;-76
2021/12/08 14:51:23;;;;;;;4.67;1.90;;;;;7.20;99274.00;;;;5014046;28;20234;-76